Time;durP1;ratioP1;P1;durP2;ratioP2;P2;SDS_P1;SDS_P2;PMS_P1;PMS_P2;Temp;Humidity;BMP_temperature;BMP_pressure;BME280_temperature;BME280_humidity;BME280_pressure;Samples;Min_cycle;Max_cycle;Signal;HPM_P1;HPM_P2
2023/02/25 00:01:13;;;;;;;50.15;22.25;;;;;;;4.33;79.92;99676.56;5047838;28;20029;-39
2023/02/25 00:03:40;;;;;;;41.42;19.20;;;;;;;3.82;80.64;99666.88;5048056;28;20032;-34
2023/02/25 00:06:12;;;;;;;44.40;18.40;;;;;;;4.07;78.19;99677.13;5047927;28;20029;-37
2023/02/25 00:08:39;;;;;;;41.83;20.63;;;;;;;4.23;77.99;99676.91;5047978;28;20041;-36
2023/02/25 00:11:06;;;;;;;47.53;21.23;;;;;;;4.47;79.52;99682.81;5047968;28;20040;-36
2023/02/25 00:13:33;;;;;;;45.03;21.25;;;;;;;4.80;79.06;99678.66;5047317;28;20076;-37
2023/02/25 00:16:01;;;;;;;41.45;20.17;;;;;;;4.67;78.43;99652.13;5034646;28;20474;-35
2023/02/25 00:18:27;;;;;;;;;;;;;;;4.74;78.71;99671.50;5028657;28;20508;-36
2023/02/25 00:20:55;;;;;;;62.67;25.20;;;;;;;4.68;80.32;99672.25;5027965;28;19909;-39
2023/02/25 00:23:21;;;;;;;51.30;23.90;;;;;;;4.83;79.28;99665.06;5027889;28;20048;-38
2023/02/25 00:25:49;;;;;;;77.28;30.65;;;;;;;4.94;79.74;99668.19;5027873;28;20429;-38
2023/02/25 00:28:14;;;;;;;88.47;33.97;;;;;;;4.87;79.52;99627.69;5027715;28;20060;-37
2023/02/25 00:30:41;;;;;;;87.63;31.90;;;;;;;5.02;80.00;99657.47;5027345;28;20061;-37
2023/02/25 00:33:08;;;;;;;82.88;31.20;;;;;;;5.22;78.91;99644.38;5027614;28;20038;-42
2023/02/25 00:35:37;;;;;;;78.25;31.42;;;;;;;5.06;79.14;99639.41;5027436;28;20025;-36
2023/02/25 00:38:05;;;;;;;77.88;29.20;;;;;;;4.86;79.98;99650.63;5027776;28;20117;-38
2023/02/25 00:40:31;;;;;;;69.72;27.23;;;;;;;4.55;81.38;99658.91;5027327;28;20037;-36
2023/02/25 00:42:57;;;;;;;60.17;26.40;;;;;;;4.92;81.51;99659.63;5027403;28;20092;-40
2023/02/25 00:45:22;;;;;;;54.15;23.48;;;;;;;5.07;80.55;99635.75;5027432;28;20124;-40
2023/02/25 00:47:50;;;;;;;65.78;27.75;;;;;;;4.74;79.94;99652.16;5027579;28;20083;-38
2023/02/25 00:50:16;;;;;;;;;;;;;;;4.95;80.14;99651.34;5027816;28;20025;-38
2023/02/25 00:52:45;;;;;;;57.28;23.13;;;;;;;4.77;81.24;99636.75;5027438;28;19963;-38
2023/02/25 00:55:11;;;;;;;59.15;23.27;;;;;;;5.05;80.15;99649.16;5027347;28;20517;-37
2023/02/25 00:57:36;;;;;;;44.35;21.83;;;;;;;4.20;82.29;99619.19;5027166;28;20056;-37
2023/02/25 01:00:08;;;;;;;52.70;25.67;;;;;;;4.06;83.35;99633.28;5026051;28;20136;-41
2023/02/25 01:02:34;;;;;;;60.72;23.98;;;;;;;3.97;80.83;99630.75;5027280;28;20069;-35
2023/02/25 01:04:59;;;;;;;49.33;21.30;;;;;;;3.92;80.56;99621.75;5027453;28;20052;-33
2023/02/25 01:07:25;;;;;;;51.97;21.23;;;;;;;4.48;81.01;99634.28;5026937;28;20029;-41
2023/02/25 01:09:56;;;;;;;48.80;23.75;;;;;;;4.62;79.34;99618.38;5027216;28;20034;-36
2023/02/25 01:12:22;;;;;;;50.95;22.20;;;;;;;4.49;80.05;99612.16;5027766;28;20030;-39
2023/02/25 01:14:48;;;;;;;44.10;21.85;;;;;;;4.17;80.02;99599.28;5027434;28;20034;-39
2023/02/25 01:17:13;;;;;;;47.75;23.88;;;;;;;4.29;81.01;99607.53;5026866;28;20563;-37
2023/02/25 01:19:39;;;;;;;45.88;21.77;;;;;;;4.35;80.35;99614.69;5047262;28;20095;-38
2023/02/25 01:22:04;;;;;;;45.70;20.92;;;;;;;3.70;81.50;99623.53;5047100;28;20029;-38
2023/02/25 01:24:31;;;;;;;47.78;21.10;;;;;;;3.34;82.20;99614.56;5046779;28;20059;-35
2023/02/25 01:26:59;;;;;;;46.58;22.33;;;;;;;3.29;83.67;99621.38;5047011;28;20033;-37
2023/02/25 01:29:29;;;;;;;51.53;22.27;;;;;;;3.11;84.11;99627.84;5046721;28;20029;-36
2023/02/25 01:31:58;;;;;;;58.90;24.35;;;;;;;2.89;85.86;99616.38;5047085;28;20102;-38
2023/02/25 01:34:26;;;;;;;;;;;;;;;2.97;89.53;99620.75;5047135;28;20056;-34
2023/02/25 01:36:51;;;;;;;60.08;23.90;;;;;;;3.09;90.21;99600.88;5046834;28;20011;-37
2023/02/25 01:39:21;;;;;;;59.22;26.00;;;;;;;2.78;92.02;99588.69;5046780;28;20104;-35
2023/02/25 01:41:49;;;;;;;66.18;24.88;;;;;;;3.10;91.67;99585.88;5046881;28;20044;-39
2023/02/25 01:44:21;;;;;;;58.53;23.38;;;;;;;3.55;91.08;99605.09;5049955;28;20032;-36
2023/02/25 01:46:49;;;;;;;53.15;23.30;;;;;;;3.69;90.47;99611.34;5050569;28;20052;-34
2023/02/25 01:49:30;;;;;;;55.35;24.90;;;;;;;4.05;87.79;99599.97;5050229;28;20036;-36
2023/02/25 01:52:08;;;;;;;60.28;26.20;;;;;;;3.70;88.06;99599.78;5050703;28;20497;-38
2023/02/25 01:54:35;;;;;;;54.70;24.25;;;;;;;3.37;88.40;99581.75;5050489;28;20390;-39
2023/02/25 01:57:04;;;;;;;50.58;23.45;;;;;;;3.66;88.09;99585.34;5050494;28;20129;-34
2023/02/25 01:59:30;;;;;;;59.15;25.48;;;;;;;3.72;86.25;99581.97;5050348;28;20524;-39
2023/02/25 02:01:56;;;;;;;60.00;25.52;;;;;;;3.63;86.29;99582.06;5049946;28;20567;-37
2023/02/25 02:04:22;;;;;;;54.95;26.17;;;;;;;3.60;86.21;99592.19;5050153;28;20032;-35
2023/02/25 02:06:49;;;;;;;61.17;26.48;;;;;;;3.81;85.34;99579.03;5050408;28;20037;-33
2023/02/25 02:09:22;;;;;;;58.83;26.33;;;;;;;3.66;85.60;99595.88;5050099;28;20029;-33
2023/02/25 02:11:48;;;;;;;55.28;23.67;;;;;;;3.80;84.92;99592.41;5050012;28;20069;-43
2023/02/25 02:14:26;;;;;;;56.65;25.02;;;;;;;3.85;82.39;99571.56;5049840;28;20118;-38
2023/02/25 02:17:13;;;;;;;55.53;26.15;;;;;;;3.72;82.61;99595.13;5050223;28;20039;-34
2023/02/25 02:19:44;;;;;;;59.25;25.48;;;;;;;3.67;83.81;99594.91;5033910;28;20124;-38
2023/02/25 02:22:32;;;;;;;56.85;26.50;;;;;;;3.89;82.86;99596.56;5030172;28;20051;-37
2023/02/25 02:25:15;;;;;;;59.20;26.45;;;;;;;4.01;82.17;99595.06;5029823;28;20018;-35
2023/02/25 02:27:43;;;;;;;58.80;26.25;;;;;;;3.97;82.64;99575.34;5030302;28;20115;-37
2023/02/25 02:30:22;;;;;;;56.10;27.60;;;;;;;3.92;81.99;99585.63;5029857;28;20022;-34
2023/02/25 02:33:09;;;;;;;60.80;26.92;;;;;;;4.19;80.56;99581.44;5029718;28;20413;-34
2023/02/25 02:36:03;;;;;;;59.80;26.27;;;;;;;4.21;79.44;99586.53;5029734;28;20029;-41
2023/02/25 02:38:47;;;;;;;59.22;27.48;;;;;;;4.19;78.96;99580.63;5029663;28;20121;-39
2023/02/25 02:41:21;;;;;;;57.50;26.25;;;;;;;4.33;78.61;99579.75;5029285;28;20053;-36
2023/02/25 02:43:56;;;;;;;57.92;26.85;;;;;;;3.60;81.76;99576.38;5029658;28;20148;-38
2023/02/25 02:46:27;;;;;;;55.65;25.75;;;;;;;3.12;82.00;99565.44;5029601;28;20053;-36
2023/02/25 02:49:00;;;;;;;60.13;26.52;;;;;;;2.68;81.18;99551.25;5029401;28;20519;-36
2023/02/25 02:51:50;;;;;;;63.47;27.95;;;;;;;3.20;80.16;99552.97;5029241;28;20029;-34
2023/02/25 02:54:18;;;;;;;61.55;27.20;;;;;;;2.76;82.35;99553.81;5028853;28;20049;-40
2023/02/25 02:56:46;;;;;;;57.35;26.02;;;;;;;2.68;81.45;99546.00;5029661;28;20513;-38
2023/02/25 02:59:24;;;;;;;66.00;27.75;;;;;;;3.06;81.66;99558.25;5029436;28;20087;-38
2023/02/25 03:01:59;;;;;;;63.72;26.73;;;;;;;3.60;81.13;99568.47;5029433;28;20033;-37
2023/02/25 03:04:29;;;;;;;55.00;26.83;;;;;;;3.46;81.25;99570.13;5029181;28;20040;-41
2023/02/25 03:07:01;;;;;;;56.97;25.90;;;;;;;3.16;82.43;99525.34;5029391;28;20025;-38
2023/02/25 03:09:34;;;;;;;60.22;25.77;;;;;;;3.69;81.06;99558.63;5028712;28;20038;-38
2023/02/25 03:12:00;;;;;;;58.38;24.88;;;;;;;3.12;81.48;99558.34;5029026;28;20040;-35
2023/02/25 03:14:25;;;;;;;52.97;24.92;;;;;;;3.55;80.41;99555.81;5029032;28;20030;-36
2023/02/25 03:17:05;;;;;;;50.10;23.80;;;;;;;3.58;80.63;99530.91;5028656;28;20056;-36
2023/02/25 03:19:40;;;;;;;46.65;23.33;;;;;;;3.43;81.38;99567.84;5038244;28;20021;-41
2023/02/25 03:22:11;;;;;;;43.13;22.48;;;;;;;3.66;82.69;99565.09;5048820;28;20455;-38
2023/02/25 03:24:54;;;;;;;43.38;21.42;;;;;;;3.72;81.52;99550.31;5048722;28;20471;-39
2023/02/25 03:27:34;;;;;;;34.80;19.27;;;;;;;3.37;83.27;99540.41;5048260;28;21122;-36
2023/02/25 03:30:20;;;;;;;43.75;19.63;;;;;;;3.14;85.31;99548.44;5047415;28;20125;-35
2023/02/25 03:32:54;;;;;;;44.25;22.00;;;;;;;3.08;86.67;99549.16;5048635;28;20033;-36
2023/02/25 03:35:22;;;;;;;49.38;23.02;;;;;;;2.85;87.33;99514.22;5048309;28;20087;-37
2023/02/25 03:37:53;;;;;;;42.58;22.75;;;;;;;2.92;88.18;99544.09;5048441;28;20033;-36
2023/02/25 03:40:23;;;;;;;49.92;24.17;;;;;;;3.19;86.07;99532.91;5048390;28;20033;-34
2023/02/25 03:42:55;;;;;;;42.70;20.73;;;;;;;2.91;87.11;99555.63;5048167;28;20189;-34
2023/02/25 03:45:23;;;;;;;42.30;21.42;;;;;;;3.06;86.07;99540.63;5048216;28;20036;-33
2023/02/25 03:47:51;;;;;;;40.47;19.80;;;;;;;3.05;85.37;99557.44;5048241;28;20025;-40
2023/02/25 03:50:39;;;;;;;39.78;20.23;;;;;;;2.67;85.40;99560.13;5048090;28;20036;-38
2023/02/25 03:53:05;;;;;;;48.70;23.98;;;;;;;2.23;85.74;99555.63;5048355;28;20032;-38
2023/02/25 03:55:30;;;;;;;46.72;21.70;;;;;;;2.63;84.19;99553.59;5047735;28;20078;-36
2023/02/25 03:57:58;;;;;;;52.20;23.00;;;;;;;2.72;84.96;99573.59;5048249;28;20025;-40
2023/02/25 04:00:33;;;;;;;77.28;30.60;;;;;;;2.57;86.08;99554.31;5047976;28;20116;-36
2023/02/25 04:02:59;;;;;;;92.80;34.28;;;;;;;2.37;86.22;99544.31;5048239;28;20033;-38
2023/02/25 04:05:28;;;;;;;116.53;30.55;;;;;;;1.94;89.29;99559.78;5045676;28;20033;-35
2023/02/25 04:07:55;;;;;;;110.20;30.65;;;;;;;1.97;89.20;99558.63;5047731;28;20028;-40
2023/02/25 04:10:21;;;;;;;90.85;28.80;;;;;;;1.87;89.77;99537.81;5048001;28;20037;-35
2023/02/25 04:12:47;;;;;;;88.38;27.25;;;;;;;1.40;92.07;99536.13;5047690;28;20025;-35
2023/02/25 04:15:13;;;;;;;85.10;26.67;;;;;;;1.93;91.46;99547.63;5047398;28;20029;-39
2023/02/25 04:17:39;;;;;;;98.35;27.92;;;;;;;2.06;90.24;99519.91;5047708;28;20040;-36
2023/02/25 04:20:08;;;;;;;96.57;28.38;;;;;;;1.97;92.37;99516.53;5039291;28;20033;-35
2023/02/25 04:22:33;;;;;;;111.47;28.63;;;;;;;1.63;93.59;99527.44;5027859;28;20029;-39
2023/02/25 04:25:00;;;;;;;88.68;28.40;;;;;;;1.22;97.25;99522.41;5027703;28;20029;-36
2023/02/25 04:27:26;;;;;;;105.95;28.42;;;;;;;1.09;98.78;99502.78;5027342;28;20022;-38
2023/02/25 04:29:51;;;;;;;85.28;25.55;;;;;;;0.84;100.00;99514.34;5027252;28;20082;-40
2023/02/25 04:32:17;;;;;;;97.10;25.02;;;;;;;0.82;100.00;99519.78;5027521;28;20413;-35
2023/02/25 04:34:42;;;;;;;80.93;28.20;;;;;;;1.12;100.00;99517.38;5027445;28;20116;-36
2023/02/25 04:37:08;;;;;;;76.32;28.00;;;;;;;1.40;100.00;99525.63;5027550;28;20484;-36
2023/02/25 04:39:35;;;;;;;63.78;25.20;;;;;;;1.65;99.92;99507.06;5026940;28;20112;-39
2023/02/25 04:42:03;;;;;;;64.88;24.67;;;;;;;1.85;98.80;99518.75;5027073;28;20536;-38
2023/02/25 04:44:28;;;;;;;61.10;26.58;;;;;;;1.82;97.04;99508.59;5026946;28;20116;-38
2023/02/25 04:46:53;;;;;;;61.80;23.70;;;;;;;1.42;98.76;99510.50;5027401;28;20120;-39
2023/02/25 04:49:21;;;;;;;74.07;34.42;;;;;;;1.78;97.64;99507.31;5026964;28;20402;-39
2023/02/25 04:51:50;;;;;;;62.03;27.60;;;;;;;1.83;97.99;99517.31;5027464;28;20045;-41
2023/02/25 04:54:20;;;;;;;63.97;27.08;;;;;;;2.15;95.39;99503.88;5025744;28;20025;-35
2023/02/25 04:56:46;;;;;;;58.33;26.33;;;;;;;1.74;97.35;99527.06;5027297;28;20116;-36
2023/02/25 04:59:12;;;;;;;60.63;25.63;;;;;;;1.96;96.83;99526.25;5027166;28;20040;-33
2023/02/25 05:01:38;;;;;;;74.78;28.67;;;;;;;1.55;99.11;99505.50;5026834;28;20033;-33
2023/02/25 05:04:04;;;;;;;76.10;30.33;;;;;;;2.08;98.01;99523.19;5027109;28;20049;-34
2023/02/25 05:06:29;;;;;;;74.88;31.38;;;;;;;1.76;98.62;99512.75;5027283;28;20104;-41
2023/02/25 05:08:56;;;;;;;80.85;38.38;;;;;;;1.75;98.22;99523.44;5026979;28;20126;-40
2023/02/25 05:11:23;;;;;;;86.00;39.72;;;;;;;1.58;100.00;99497.25;5026569;28;20029;-36
2023/02/25 05:13:54;;;;;;;54.80;24.60;;;;;;;1.36;100.00;99519.06;5027073;28;20021;-40
2023/02/25 05:16:23;;;;;;;63.97;29.08;;;;;;;1.14;100.00;99518.03;5027274;28;20037;-38
2023/02/25 05:18:48;;;;;;;70.53;28.58;;;;;;;1.47;100.00;99517.84;5031209;28;20056;-36
2023/02/25 05:21:18;;;;;;;72.55;31.85;;;;;;;1.58;99.76;99497.25;5033304;28;20504;-40
2023/02/25 05:23:46;;;;;;;86.70;32.55;;;;;;;2.01;97.68;99507.28;5050754;28;20122;-37
2023/02/25 05:26:12;;;;;;;73.32;29.65;;;;;;;1.99;98.05;99520.63;5050829;28;20047;-33
2023/02/25 05:28:38;;;;;;;69.68;29.25;;;;;;;2.05;97.68;99507.78;5050447;28;20037;-41
2023/02/25 05:31:04;;;;;;;77.75;33.22;;;;;;;1.80;98.34;99534.25;5050745;28;20082;-37
2023/02/25 05:33:30;;;;;;;64.85;27.63;;;;;;;1.67;100.00;99532.19;5050224;28;20411;-43
2023/02/25 05:35:55;;;;;;;72.00;27.15;;;;;;;2.05;99.07;99537.50;5050894;28;20033;-41
2023/02/25 05:38:21;;;;;;;75.05;28.80;;;;;;;1.94;99.90;99527.38;5050386;28;20021;-40
2023/02/25 05:40:49;;;;;;;68.60;28.17;;;;;;;1.79;100.00;99519.44;5041612;28;20045;-35
2023/02/25 05:43:14;;;;;;;60.78;26.67;;;;;;;1.65;100.00;99522.84;5030522;28;20123;-41
2023/02/25 05:45:39;;;;;;;56.50;24.67;;;;;;;1.68;100.00;99518.06;5030509;28;20116;-38
2023/02/25 05:48:05;;;;;;;67.75;28.65;;;;;;;1.70;100.00;99491.59;5030563;28;20040;-39
2023/02/25 05:50:33;;;;;;;98.90;38.95;;;;;;;2.14;100.00;99504.06;5030127;28;20033;-38
2023/02/25 05:52:59;;;;;;;100.43;43.42;;;;;;;2.27;100.00;99506.91;5030261;28;20026;-36
2023/02/25 05:55:27;;;;;;;121.32;53.88;;;;;;;2.53;99.62;99492.50;5030014;28;20045;-40
2023/02/25 05:57:52;;;;;;;97.60;41.95;;;;;;;2.73;99.06;99477.00;5030317;28;20032;-37
2023/02/25 06:00:20;;;;;;;109.35;43.58;;;;;;;3.01;98.58;99503.50;5030237;28;20030;-40
2023/02/25 06:02:46;;;;;;;110.60;42.30;;;;;;;3.15;98.73;99504.47;5030160;28;20592;-36
2023/02/25 06:05:11;;;;;;;128.30;46.00;;;;;;;3.44;98.93;99516.78;5030093;28;20109;-36
2023/02/25 06:07:37;;;;;;;112.93;38.92;;;;;;;3.59;99.66;99504.34;5029630;28;20021;-37
2023/02/25 06:10:03;;;;;;;80.90;33.80;;;;;;;3.69;98.82;99511.16;5029965;28;20029;-35
2023/02/25 06:12:30;;;;;;;128.65;31.15;;;;;;;3.65;100.00;99501.97;5029993;28;20032;-36
2023/02/25 06:14:56;;;;;;;102.50;28.67;;;;;;;3.31;100.00;99504.25;5037767;28;20040;-37
2023/02/25 06:17:23;;;;;;;135.30;30.52;;;;;;;3.58;100.00;99523.00;5038940;28;20026;-37
2023/02/25 06:19:50;;;;;;;82.60;28.65;;;;;;;3.49;100.00;99516.19;5038993;28;20033;-40
2023/02/25 06:22:19;;;;;;;107.95;30.02;;;;;;;3.26;100.00;99516.34;5040035;28;20028;-37
2023/02/25 06:24:45;;;;;;;118.80;33.13;;;;;;;3.13;100.00;99509.91;5039550;28;20489;-40
2023/02/25 06:27:11;;;;;;;127.05;32.38;;;;;;;3.39;100.00;99506.78;5037071;28;20029;-34
2023/02/25 06:29:40;;;;;;;142.88;49.35;;;;;;;3.66;100.00;99496.53;5039127;28;20560;-37
2023/02/25 06:32:06;;;;;;;102.80;39.85;;;;;;;3.83;100.00;99486.53;5029654;28;20044;-34
2023/02/25 06:34:32;;;;;;;74.55;33.17;;;;;;;3.56;100.00;99515.28;5033416;28;20057;-39
2023/02/25 06:36:58;;;;;;;160.07;46.70;;;;;;;3.63;100.00;99487.13;5039376;28;20060;-36
2023/02/25 06:39:23;;;;;;;118.95;40.65;;;;;;;3.58;100.00;99515.91;5038344;28;20461;-37
2023/02/25 06:41:49;;;;;;;106.70;38.35;;;;;;;3.55;100.00;99499.63;5038160;28;20056;-37
2023/02/25 06:44:14;;;;;;;136.57;40.65;;;;;;;3.90;100.00;99521.69;5039606;28;20052;-40
2023/02/25 06:46:43;;;;;;;141.05;41.42;;;;;;;3.90;100.00;99526.97;5038067;28;20033;-39
2023/02/25 06:49:08;;;;;;;112.65;37.38;;;;;;;3.83;100.00;99502.34;5038336;28;20082;-37
2023/02/25 06:51:33;;;;;;;121.38;40.90;;;;;;;4.00;100.00;99509.03;5039215;28;20749;-40
2023/02/25 06:54:01;;;;;;;127.75;39.83;;;;;;;4.31;100.00;99521.03;5037745;28;20036;-38
2023/02/25 06:56:27;;;;;;;106.53;34.92;;;;;;;4.24;100.00;99520.16;5038382;28;20047;-39
2023/02/25 06:58:53;;;;;;;95.35;33.35;;;;;;;4.31;100.00;99499.09;5039560;28;20504;-39
2023/02/25 07:01:19;;;;;;;119.55;33.20;;;;;;;4.34;100.00;99493.44;5037304;28;20116;-37
2023/02/25 07:03:44;;;;;;;76.07;31.05;;;;;;;4.16;100.00;99512.38;5040124;28;20040;-36
2023/02/25 07:06:10;;;;;;;88.82;32.30;;;;;;;4.39;100.00;99514.78;5037516;28;20032;-36
2023/02/25 07:08:36;;;;;;;107.00;37.17;;;;;;;4.70;100.00;99513.56;5039391;28;20467;-39
2023/02/25 07:11:10;;;;;;;107.15;36.25;;;;;;;4.85;97.53;99519.56;5037546;28;20033;-35
2023/02/25 07:13:36;;;;;;;114.35;38.40;;;;;;;4.68;99.37;99511.13;5037040;28;20138;-36
2023/02/25 07:16:01;;;;;;;94.68;35.88;;;;;;;4.87;98.93;99492.94;5038971;28;20178;-36
2023/02/25 07:18:26;;;;;;;87.55;32.80;;;;;;;4.85;99.24;99505.53;5038464;28;20431;-34
2023/02/25 07:20:52;;;;;;;99.03;42.92;;;;;;;4.99;99.02;99497.47;5037258;28;20033;-36
2023/02/25 07:23:17;;;;;;;95.30;36.60;;;;;;;5.06;97.18;99481.63;5039114;28;20025;-38
2023/02/25 07:25:42;;;;;;;88.07;41.22;;;;;;;5.43;97.15;99498.88;5036347;28;20021;-39
2023/02/25 07:28:08;;;;;;;114.50;43.92;;;;;;;5.57;96.11;99509.47;5038824;28;20021;-40
2023/02/25 07:30:36;;;;;;;166.57;66.85;;;;;;;5.82;95.75;99520.31;5037692;28;20022;-40
2023/02/25 07:33:02;;;;;;;;;;;;;;;6.18;93.68;99521.81;5035785;28;20017;-36
2023/02/25 07:35:27;;;;;;;94.28;39.08;;;;;;;5.88;92.70;99500.97;5028098;28;19951;-38
2023/02/25 07:37:52;;;;;;;101.70;40.63;;;;;;;5.92;94.69;99501.38;5028216;28;20414;-38
2023/02/25 07:40:18;;;;;;;97.32;43.15;;;;;;;5.79;96.14;99475.75;5028881;28;20160;-42
2023/02/25 07:42:44;;;;;;;86.30;39.67;;;;;;;5.88;95.65;99495.69;5027882;28;20062;-40
2023/02/25 07:45:10;;;;;;;94.32;41.78;;;;;;;5.90;94.76;99506.88;5028365;28;20040;-41
2023/02/25 07:47:37;;;;;;;88.13;38.67;;;;;;;5.76;95.72;99507.88;5027849;28;20068;-40
2023/02/25 07:50:04;;;;;;;79.05;37.33;;;;;;;5.87;94.84;99496.72;5027966;28;20030;-41
2023/02/25 07:52:30;;;;;;;90.27;39.40;;;;;;;6.09;94.04;99475.34;5028178;28;20048;-40
2023/02/25 07:54:58;;;;;;;97.45;39.00;;;;;;;6.18;94.94;99492.69;5028160;28;20029;-37
2023/02/25 07:57:23;;;;;;;;;;;;;;;6.24;94.22;99497.16;5028342;28;20026;-41
2023/02/25 07:59:49;;;;;;;92.78;38.47;;;;;;;6.35;94.17;99501.00;5028017;28;19972;-40
2023/02/25 08:02:14;;;;;;;97.80;41.13;;;;;;;6.24;94.01;99497.16;5027787;28;20167;-40
2023/02/25 08:04:40;;;;;;;94.80;38.60;;;;;;;6.09;95.43;99496.53;5027574;28;20030;-41
2023/02/25 08:07:05;;;;;;;80.13;35.83;;;;;;;6.27;94.03;99494.09;5034655;28;20064;-38
2023/02/25 08:09:31;;;;;;;80.85;36.67;;;;;;;6.49;93.09;99485.94;5033790;28;20045;-36
2023/02/25 08:11:57;;;;;;;76.43;35.72;;;;;;;6.42;91.53;99462.09;5027593;28;20041;-36
2023/02/25 08:14:22;;;;;;;74.65;38.03;;;;;;;6.42;92.49;99470.88;5027811;28;20029;-38
2023/02/25 08:16:48;;;;;;;77.13;35.85;;;;;;;6.55;93.01;99474.50;5027645;28;20041;-35
2023/02/25 08:19:14;;;;;;;89.78;38.47;;;;;;;6.59;92.16;99475.72;5027695;28;20075;-40
2023/02/25 08:21:39;;;;;;;76.65;38.50;;;;;;;6.61;91.71;99468.38;5032820;28;20033;-35
2023/02/25 08:24:06;;;;;;;69.70;34.72;;;;;;;6.29;92.57;99454.97;5047052;28;20072;-35
2023/02/25 08:26:32;;;;;;;75.03;37.50;;;;;;;6.43;93.30;99461.88;5047309;28;20528;-34
2023/02/25 08:28:58;;;;;;;61.63;34.35;;;;;;;6.47;92.21;99435.81;5047480;28;20025;-33
2023/02/25 08:31:24;;;;;;;65.88;36.38;;;;;;;6.66;92.28;99450.03;5046641;28;20028;-36
2023/02/25 08:33:51;;;;;;;63.75;35.22;;;;;;;6.35;94.25;99453.34;5046901;28;20116;-35
2023/02/25 08:36:35;;;;;;;59.95;36.20;;;;;;;6.69;93.68;99423.09;5047258;28;20069;-35
2023/02/25 08:39:01;;;;;;;61.72;36.97;;;;;;;7.02;92.34;99428.25;5047227;28;20028;-37
2023/02/25 08:41:30;;;;;;;58.35;34.33;;;;;;;7.44;90.52;99435.81;5046658;28;20045;-33
2023/02/25 08:44:00;;;;;;;55.13;33.85;;;;;;;7.69;89.61;99451.78;5046820;28;20516;-35
2023/02/25 08:46:29;;;;;;;52.45;30.30;;;;;;;7.50;90.26;99445.56;5047292;28;20033;-35
2023/02/25 08:48:54;;;;;;;;;;;;;;;7.80;89.13;99456.38;5047582;28;20060;-37
2023/02/25 08:51:22;;;;;;;48.65;28.30;;;;;;;7.90;88.71;99428.53;5046285;28;20037;-36
2023/02/25 08:53:48;;;;;;;47.97;27.65;;;;;;;8.15;87.38;99426.69;5046839;28;20115;-34
2023/02/25 08:56:15;;;;;;;45.65;25.23;;;;;;;8.37;85.10;99421.75;5045424;28;20027;-37
2023/02/25 08:58:40;;;;;;;47.47;26.67;;;;;;;8.60;84.29;99407.88;5046800;28;20033;-36
2023/02/25 09:01:11;;;;;;;45.42;25.98;;;;;;;8.99;81.55;99404.94;5047476;28;20803;-36
2023/02/25 09:04:00;;;;;;;50.25;27.48;;;;;;;9.04;80.39;99362.53;5045465;28;20401;-37
2023/02/25 09:06:27;;;;;;;42.75;24.15;;;;;;;9.84;78.87;99411.88;5046954;28;20108;-37
2023/02/25 09:08:56;;;;;;;45.30;25.35;;;;;;;10.33;76.86;99398.38;5046850;28;20044;-36
2023/02/25 09:11:23;;;;;;;47.38;28.50;;;;;;;10.70;75.90;99388.22;5047007;28;20896;-32
2023/02/25 09:13:48;;;;;;;38.72;21.17;;;;;;;10.92;74.93;99380.38;5042739;28;20033;-36
2023/02/25 09:16:18;;;;;;;39.03;22.25;;;;;;;10.97;74.47;99379.66;5027145;28;20029;-36
2023/02/25 09:18:45;;;;;;;47.05;26.08;;;;;;;11.11;73.38;99383.66;5026847;28;20030;-35
2023/02/25 09:21:12;;;;;;;43.22;23.88;;;;;;;11.24;73.03;99387.91;5028010;28;20477;-38
2023/02/25 09:23:37;;;;;;;42.08;24.52;;;;;;;11.10;71.91;99392.72;5046319;28;20048;-40
2023/02/25 09:26:04;;;;;;;45.17;24.17;;;;;;;11.54;70.76;99357.44;5046619;28;20052;-38
2023/02/25 09:28:30;;;;;;;42.17;26.60;;;;;;;11.98;70.82;99353.06;5046919;28;20037;-37
2023/02/25 09:30:56;;;;;;;42.97;23.42;;;;;;;11.85;70.28;99361.41;5045323;28;20149;-39
2023/02/25 09:33:23;;;;;;;45.30;25.83;;;;;;;11.95;69.40;99366.09;5046303;28;20056;-42
2023/02/25 09:35:48;;;;;;;47.30;24.95;;;;;;;12.06;69.17;99347.31;5046581;28;20048;-39
2023/02/25 09:38:13;;;;;;;47.25;26.55;;;;;;;12.59;68.76;99338.91;5046502;28;20033;-40
2023/02/25 09:40:44;;;;;;;40.38;24.15;;;;;;;12.90;66.79;99328.53;5046389;28;20552;-39
2023/02/25 09:43:15;;;;;;;42.97;23.73;;;;;;;12.88;66.17;99336.00;5046725;28;20044;-35
2023/02/25 09:45:46;;;;;;;42.72;24.58;;;;;;;12.61;66.87;99336.78;5046317;28;20048;-33
2023/02/25 09:48:33;;;;;;;48.72;30.70;;;;;;;12.83;66.37;99318.84;5046669;28;20033;-37
2023/02/25 09:51:25;;;;;;;39.45;24.85;;;;;;;13.15;64.59;99309.22;5046742;28;20118;-37
2023/02/25 09:54:21;;;;;;;42.83;22.67;;;;;;;13.59;63.41;99315.25;5046470;28;20481;-37
2023/02/25 09:56:48;;;;;;;40.40;22.90;;;;;;;13.83;63.28;99317.53;5046118;28;20052;-36
2023/02/25 09:59:17;;;;;;;41.08;22.83;;;;;;;14.01;62.36;99295.66;5036150;28;20809;-37
2023/02/25 10:02:14;;;;;;;38.38;23.10;;;;;;;13.78;62.49;99280.78;5035096;28;20090;-37
2023/02/25 10:04:57;;;;;;;40.17;23.63;;;;;;;14.32;61.64;99282.38;5037321;28;20132;-33
2023/02/25 10:07:34;;;;;;;37.95;21.13;;;;;;;14.54;62.59;99298.28;5038371;28;20028;-38
2023/02/25 10:10:16;;;;;;;36.47;23.55;;;;;;;14.64;61.42;99289.50;5043612;28;20043;-37
2023/02/25 10:12:53;;;;;;;49.65;31.75;;;;;;;15.32;59.58;99270.50;5047668;28;20548;-40
2023/02/25 10:15:33;;;;;;;42.80;27.13;;;;;;;15.67;57.71;99269.66;5049248;28;20032;-36
2023/02/25 10:18:21;;;;;;;37.70;23.27;;;;;;;15.45;57.80;99269.97;5049877;28;20040;-39
2023/02/25 10:21:00;;;;;;;36.23;19.37;;;;;;;15.71;58.68;99258.34;5050022;28;20037;-39
2023/02/25 10:23:53;;;;;;;34.30;19.63;;;;;;;15.95;57.15;99256.72;5029796;28;20270;-38
2023/02/25 10:26:40;;;;;;;64.40;37.10;;;;;;;16.32;55.19;99252.00;5029920;28;20099;-40
2023/02/25 10:29:11;;;;;;;48.80;29.38;;;;;;;16.63;53.39;99252.63;5029788;28;20029;-35
2023/02/25 10:31:38;;;;;;;43.70;24.52;;;;;;;16.22;54.91;99244.78;5035787;28;20064;-40
2023/02/25 10:34:20;;;;;;;58.42;34.20;;;;;;;16.79;54.05;99237.97;5049679;28;20044;-38
2023/02/25 10:36:53;;;;;;;48.30;30.80;;;;;;;16.57;54.65;99218.75;5049695;28;20041;-38
2023/02/25 10:39:18;;;;;;;45.30;27.25;;;;;;;16.79;54.07;99221.03;5049137;28;20028;-37
2023/02/25 10:41:43;;;;;;;38.47;23.30;;;;;;;16.77;54.02;99209.72;5048457;28;20061;-34
2023/02/25 10:44:12;;;;;;;130.15;68.93;;;;;;;17.56;51.97;99196.13;5048583;28;20120;-36
2023/02/25 10:46:45;;;;;;;102.32;52.13;;;;;;;18.15;50.21;99196.81;5049224;28;20032;-36
2023/02/25 10:49:21;;;;;;;38.55;22.58;;;;;;;18.16;50.02;99198.41;5049072;28;20489;-32
2023/02/25 10:52:09;;;;;;;33.28;19.70;;;;;;;18.16;49.29;99193.00;5049344;28;20041;-33
2023/02/25 10:54:47;;;;;;;35.45;20.00;;;;;;;18.28;49.43;99179.88;5049221;28;20473;-37
2023/02/25 10:57:15;;;;;;;38.33;20.38;;;;;;;19.07;46.96;99179.25;5048770;28;20059;-41
2023/02/25 10:59:43;;;;;;;34.92;19.38;;;;;;;19.20;47.91;99167.63;5048964;28;20025;-37
2023/02/25 11:02:24;;;;;;;35.80;20.75;;;;;;;19.09;47.45;99168.94;5049252;28;20033;-33
2023/02/25 11:04:53;;;;;;;36.95;21.05;;;;;;;18.94;47.89;99159.19;5049179;28;20179;-35
2023/02/25 11:07:38;;;;;;;32.95;19.58;;;;;;;18.84;48.60;99154.75;5048749;28;20025;-36
2023/02/25 11:10:11;;;;;;;32.03;17.92;;;;;;;18.90;49.30;99158.19;5049118;28;20036;-35
2023/02/25 11:12:42;;;;;;;30.45;17.90;;;;;;;18.98;47.84;99153.97;5048930;28;20047;-33
2023/02/25 11:15:25;;;;;;;30.02;17.98;;;;;;;19.03;47.91;99159.31;5048299;28;20025;-37
2023/02/25 11:18:03;;;;;;;34.15;19.42;;;;;;;19.22;47.73;99151.13;5048608;28;20079;-35
2023/02/25 11:20:32;;;;;;;32.95;19.08;;;;;;;18.87;48.02;99154.16;5048898;28;20064;-34
2023/02/25 11:22:59;;;;;;;28.13;18.35;;;;;;;18.95;47.56;99149.19;5048462;28;20424;-37
2023/02/25 11:25:39;;;;;;;28.17;18.30;;;;;;;18.84;48.74;99143.97;5047941;28;20440;-36
2023/02/25 11:28:16;;;;;;;33.08;19.52;;;;;;;19.13;47.14;99125.91;5048636;28;20029;-34
2023/02/25 11:30:43;;;;;;;29.70;17.20;;;;;;;19.68;46.86;99125.91;5048419;28;20510;-32
2023/02/25 11:33:22;;;;;;;32.58;17.45;;;;;;;19.82;47.33;99107.00;5047101;28;20398;-34
2023/02/25 11:35:55;;;;;;;34.10;20.70;;;;;;;20.11;44.91;99109.31;5048444;28;20033;-35